sensor_id;sensor_type;location;lat;lon;timestamp;pressure;altitude;pressure_sealevel;temperature;humidity
69751;BME280;57335;52.288;6.056;2023-08-31T00:01:13;100751.84;;;10.68;100.00
69751;BME280;57335;52.288;6.056;2023-08-31T00:03:40;100742.19;;;10.69;100.00
69751;BME280;57335;52.288;6.056;2023-08-31T00:06:06;100741.75;;;10.72;100.00
69751;BME280;57335;52.288;6.056;2023-08-31T00:08:34;100743.97;;;10.75;100.00
69751;BME280;57335;52.288;6.056;2023-08-31T00:11:00;100739.34;;;10.77;100.00
69751;BME280;57335;52.288;6.056;2023-08-31T00:13:27;100733.06;;;10.78;100.00
69751;BME280;57335;52.288;6.056;2023-08-31T00:15:56;100735.28;;;10.81;100.00
69751;BME280;57335;52.288;6.056;2023-08-31T00:18:23;100732.44;;;10.83;100.00
69751;BME280;57335;52.288;6.056;2023-08-31T00:20:50;100733.84;;;10.85;100.00
69751;BME280;57335;52.288;6.056;2023-08-31T00:23:17;100732.81;;;10.86;100.00
69751;BME280;57335;52.288;6.056;2023-08-31T00:25:43;100732.81;;;10.86;100.00
69751;BME280;57335;52.288;6.056;2023-08-31T00:28:10;100738.66;;;10.88;100.00
69751;BME280;57335;52.288;6.056;2023-08-31T00:30:36;100732.41;;;10.89;100.00
69751;BME280;57335;52.288;6.056;2023-08-31T00:33:03;100723.50;;;10.90;100.00
69751;BME280;57335;52.288;6.056;2023-08-31T00:35:29;100730.38;;;10.91;100.00
69751;BME280;57335;52.288;6.056;2023-08-31T00:37:56;100725.94;;;10.92;100.00
69751;BME280;57335;52.288;6.056;2023-08-31T00:40:22;100731.97;;;10.92;100.00
69751;BME280;57335;52.288;6.056;2023-08-31T00:42:49;100734.19;;;10.95;100.00
69751;BME280;57335;52.288;6.056;2023-08-31T00:45:15;100729.75;;;10.96;100.00
69751;BME280;57335;52.288;6.056;2023-08-31T00:47:42;100733.19;;;10.96;100.00
69751;BME280;57335;52.288;6.056;2023-08-31T00:50:08;100738.19;;;10.98;100.00
69751;BME280;57335;52.288;6.056;2023-08-31T00:52:35;100738.00;;;11.00;100.00
69751;BME280;57335;52.288;6.056;2023-08-31T00:55:02;100732.75;;;11.00;100.00
69751;BME280;57335;52.288;6.056;2023-08-31T00:57:29;100740.22;;;11.03;100.00
69751;BME280;57335;52.288;6.056;2023-08-31T00:59:55;100741.97;;;11.09;100.00
69751;BME280;57335;52.288;6.056;2023-08-31T01:02:36;100742.56;;;11.11;100.00
69751;BME280;57335;52.288;6.056;2023-08-31T01:05:29;100747.19;;;11.15;100.00
69751;BME280;57335;52.288;6.056;2023-08-31T01:08:13;100738.31;;;11.16;100.00
69751;BME280;57335;52.288;6.056;2023-08-31T01:13:21;100737.81;;;11.26;100.00
69751;BME280;57335;52.288;6.056;2023-08-31T01:16:00;100742.06;;;11.27;100.00
69751;BME280;57335;52.288;6.056;2023-08-31T01:18:28;100743.03;;;11.33;100.00
69751;BME280;57335;52.288;6.056;2023-08-31T01:21:12;100754.50;;;11.38;100.00
69751;BME280;57335;52.288;6.056;2023-08-31T01:23:54;100784.53;;;11.43;100.00
69751;BME280;57335;52.288;6.056;2023-08-31T01:26:22;100798.66;;;11.42;100.00
69751;BME280;57335;52.288;6.056;2023-08-31T01:28:49;100787.19;;;11.36;100.00
69751;BME280;57335;52.288;6.056;2023-08-31T01:31:16;100772.63;;;11.40;100.00
69751;BME280;57335;52.288;6.056;2023-08-31T01:33:43;100768.94;;;11.48;100.00
69751;BME280;57335;52.288;6.056;2023-08-31T01:36:24;100763.88;;;11.53;100.00
69751;BME280;57335;52.288;6.056;2023-08-31T01:38:59;100759.81;;;11.57;100.00
69751;BME280;57335;52.288;6.056;2023-08-31T01:41:28;100767.03;;;11.62;100.00
69751;BME280;57335;52.288;6.056;2023-08-31T01:43:57;100756.13;;;11.65;100.00
69751;BME280;57335;52.288;6.056;2023-08-31T01:46:24;100750.41;;;11.68;100.00
69751;BME280;57335;52.288;6.056;2023-08-31T01:48:51;100750.00;;;11.71;100.00
69751;BME280;57335;52.288;6.056;2023-08-31T01:51:17;100749.75;;;11.72;100.00
69751;BME280;57335;52.288;6.056;2023-08-31T01:53:44;100741.47;;;11.75;100.00
69751;BME280;57335;52.288;6.056;2023-08-31T01:56:10;100739.44;;;11.77;100.00
69751;BME280;57335;52.288;6.056;2023-08-31T01:58:37;100753.16;;;11.80;100.00
69751;BME280;57335;52.288;6.056;2023-08-31T02:01:03;100746.66;;;11.82;100.00
69751;BME280;57335;52.288;6.056;2023-08-31T02:03:29;100734.34;;;11.83;100.00
69751;BME280;57335;52.288;6.056;2023-08-31T02:05:56;100734.34;;;11.83;100.00
69751;BME280;57335;52.288;6.056;2023-08-31T02:08:22;100745.66;;;11.83;100.00
69751;BME280;57335;52.288;6.056;2023-08-31T02:10:49;100736.34;;;11.81;100.00
69751;BME280;57335;52.288;6.056;2023-08-31T02:13:15;100735.34;;;11.82;100.00
69751;BME280;57335;52.288;6.056;2023-08-31T02:15:42;100744.47;;;11.79;100.00
69751;BME280;57335;52.288;6.056;2023-08-31T02:18:09;100743.06;;;11.76;100.00
69751;BME280;57335;52.288;6.056;2023-08-31T02:20:35;100748.75;;;11.73;100.00
69751;BME280;57335;52.288;6.056;2023-08-31T02:23:02;100744.38;;;11.67;100.00
69751;BME280;57335;52.288;6.056;2023-08-31T02:25:28;100744.19;;;11.62;100.00
69751;BME280;57335;52.288;6.056;2023-08-31T02:27:55;100744.84;;;11.57;100.00
69751;BME280;57335;52.288;6.056;2023-08-31T02:30:21;100747.31;;;11.52;100.00
69751;BME280;57335;52.288;6.056;2023-08-31T02:32:48;100745.34;;;11.48;100.00
69751;BME280;57335;52.288;6.056;2023-08-31T02:35:14;100743.56;;;11.42;100.00
69751;BME280;57335;52.288;6.056;2023-08-31T02:37:41;100747.22;;;11.41;100.00
69751;BME280;57335;52.288;6.056;2023-08-31T02:40:07;100743.19;;;11.38;100.00
69751;BME280;57335;52.288;6.056;2023-08-31T02:42:34;100734.94;;;11.34;100.00
69751;BME280;57335;52.288;6.056;2023-08-31T02:45:00;100732.53;;;11.33;100.00
69751;BME280;57335;52.288;6.056;2023-08-31T02:47:27;100733.75;;;11.30;100.00
69751;BME280;57335;52.288;6.056;2023-08-31T02:49:53;100734.19;;;11.27;100.00
69751;BME280;57335;52.288;6.056;2023-08-31T02:52:20;100721.47;;;11.24;100.00
69751;BME280;57335;52.288;6.056;2023-08-31T02:54:46;100731.19;;;11.24;100.00
69751;BME280;57335;52.288;6.056;2023-08-31T02:57:13;100736.22;;;11.25;100.00
69751;BME280;57335;52.288;6.056;2023-08-31T02:59:39;100730.78;;;11.27;100.00
69751;BME280;57335;52.288;6.056;2023-08-31T03:02:05;100732.16;;;11.29;100.00
69751;BME280;57335;52.288;6.056;2023-08-31T03:04:32;100729.75;;;11.28;100.00
69751;BME280;57335;52.288;6.056;2023-08-31T03:06:58;100726.31;;;11.27;100.00
69751;BME280;57335;52.288;6.056;2023-08-31T03:09:24;100729.94;;;11.26;100.00
69751;BME280;57335;52.288;6.056;2023-08-31T03:11:51;100726.72;;;11.24;100.00
69751;BME280;57335;52.288;6.056;2023-08-31T03:14:17;100731.38;;;11.22;100.00
69751;BME280;57335;52.288;6.056;2023-08-31T03:16:43;100727.16;;;11.21;100.00
69751;BME280;57335;52.288;6.056;2023-08-31T03:19:10;100732.63;;;11.20;100.00
69751;BME280;57335;52.288;6.056;2023-08-31T03:21:36;100735.03;;;11.21;100.00
69751;BME280;57335;52.288;6.056;2023-08-31T03:24:03;100733.00;;;11.23;100.00
69751;BME280;57335;52.288;6.056;2023-08-31T03:26:29;100724.09;;;11.24;100.00
69751;BME280;57335;52.288;6.056;2023-08-31T03:28:56;100724.09;;;11.24;100.00
69751;BME280;57335;52.288;6.056;2023-08-31T03:31:22;100727.75;;;11.23;100.00
69751;BME280;57335;52.288;6.056;2023-08-31T03:33:50;100730.19;;;11.25;100.00
69751;BME280;57335;52.288;6.056;2023-08-31T03:36:16;100718.06;;;11.24;100.00
69751;BME280;57335;52.288;6.056;2023-08-31T03:38:43;100715.22;;;11.25;100.00
69751;BME280;57335;52.288;6.056;2023-08-31T03:41:09;100729.53;;;11.29;100.00
69751;BME280;57335;52.288;6.056;2023-08-31T03:43:36;100735.38;;;11.31;100.00
69751;BME280;57335;52.288;6.056;2023-08-31T03:46:02;100724.44;;;11.34;100.00
69751;BME280;57335;52.288;6.056;2023-08-31T03:48:29;100717.38;;;11.35;100.00
69751;BME280;57335;52.288;6.056;2023-08-31T03:50:55;100727.63;;;11.36;100.00
69751;BME280;57335;52.288;6.056;2023-08-31T03:53:22;100719.63;;;11.31;100.00
69751;BME280;57335;52.288;6.056;2023-08-31T03:55:49;100719.63;;;11.31;100.00
69751;BME280;57335;52.288;6.056;2023-08-31T03:58:15;100724.88;;;11.31;100.00
69751;BME280;57335;52.288;6.056;2023-08-31T04:00:42;100728.50;;;11.30;100.00
69751;BME280;57335;52.288;6.056;2023-08-31T04:03:09;100736.38;;;11.30;100.00
69751;BME280;57335;52.288;6.056;2023-08-31T04:05:36;100735.19;;;11.26;100.00
69751;BME280;57335;52.288;6.056;2023-08-31T04:08:03;100728.56;;;11.24;100.00
69751;BME280;57335;52.288;6.056;2023-08-31T04:10:30;100737.66;;;11.21;100.00
69751;BME280;57335;52.288;6.056;2023-08-31T04:12:56;100744.94;;;11.19;100.00
69751;BME280;57335;52.288;6.056;2023-08-31T04:15:23;100756.88;;;11.15;100.00
69751;BME280;57335;52.288;6.056;2023-08-31T04:17:49;100770.00;;;11.15;100.00
69751;BME280;57335;52.288;6.056;2023-08-31T04:20:17;100762.53;;;11.12;100.00
69751;BME280;57335;52.288;6.056;2023-08-31T04:22:44;100772.81;;;11.13;100.00
69751;BME280;57335;52.288;6.056;2023-08-31T04:25:13;100773.41;;;11.15;100.00
69751;BME280;57335;52.288;6.056;2023-08-31T04:27:39;100764.75;;;11.15;100.00
69751;BME280;57335;52.288;6.056;2023-08-31T04:30:06;100759.25;;;11.23;100.00
69751;BME280;57335;52.288;6.056;2023-08-31T04:32:35;100769.28;;;11.26;100.00
69751;BME280;57335;52.288;6.056;2023-08-31T04:35:03;100770.47;;;11.30;100.00
69751;BME280;57335;52.288;6.056;2023-08-31T04:37:30;100772.91;;;11.32;100.00
69751;BME280;57335;52.288;6.056;2023-08-31T04:39:56;100766.84;;;11.31;100.00
69751;BME280;57335;52.288;6.056;2023-08-31T04:42:22;100780.56;;;11.33;100.00
69751;BME280;57335;52.288;6.056;2023-08-31T04:44:49;100776.31;;;11.32;100.00
69751;BME280;57335;52.288;6.056;2023-08-31T04:47:16;100771.66;;;11.34;100.00
69751;BME280;57335;52.288;6.056;2023-08-31T04:49:42;100763.78;;;11.34;100.00
69751;BME280;57335;52.288;6.056;2023-08-31T04:52:08;100764.81;;;11.33;100.00
69751;BME280;57335;52.288;6.056;2023-08-31T04:54:35;100771.66;;;11.34;100.00
69751;BME280;57335;52.288;6.056;2023-08-31T04:57:01;100770.84;;;11.34;100.00
69751;BME280;57335;52.288;6.056;2023-08-31T04:59:27;100766.84;;;11.31;100.00
69751;BME280;57335;52.288;6.056;2023-08-31T05:01:55;100762.41;;;11.32;100.00
69751;BME280;57335;52.288;6.056;2023-08-31T05:04:21;100764.22;;;11.31;100.00
69751;BME280;57335;52.288;6.056;2023-08-31T05:06:48;100766.41;;;11.34;100.00
69751;BME280;57335;52.288;6.056;2023-08-31T05:09:14;100768.03;;;11.35;100.00
69751;BME280;57335;52.288;6.056;2023-08-31T05:11:41;100791.22;;;11.38;100.00
69751;BME280;57335;52.288;6.056;2023-08-31T05:14:07;100776.88;;;11.41;100.00
69751;BME280;57335;52.288;6.056;2023-08-31T05:16:33;100786.94;;;11.44;100.00
69751;BME280;57335;52.288;6.056;2023-08-31T05:19:00;100795.00;;;11.49;100.00
69751;BME280;57335;52.288;6.056;2023-08-31T05:21:26;100794.94;;;11.56;100.00
69751;BME280;57335;52.288;6.056;2023-08-31T05:23:52;100798.91;;;11.65;100.00
69751;BME280;57335;52.288;6.056;2023-08-31T05:26:19;100795.56;;;11.76;100.00
69751;BME280;57335;52.288;6.056;2023-08-31T05:28:45;100798.53;;;11.87;100.00
69751;BME280;57335;52.288;6.056;2023-08-31T05:31:12;100805.69;;;12.05;100.00
69751;BME280;57335;52.288;6.056;2023-08-31T05:33:38;100804.53;;;12.19;100.00
69751;BME280;57335;52.288;6.056;2023-08-31T05:36:05;100797.75;;;12.30;100.00
69751;BME280;57335;52.288;6.056;2023-08-31T05:38:31;100806.97;;;12.39;100.00
69751;BME280;57335;52.288;6.056;2023-08-31T05:41:08;100812.13;;;12.46;100.00
69751;BME280;57335;52.288;6.056;2023-08-31T05:43:35;100813.22;;;12.56;100.00
69751;BME280;57335;52.288;6.056;2023-08-31T05:46:02;100810.06;;;12.85;100.00
69751;BME280;57335;52.288;6.056;2023-08-31T05:48:29;100815.75;;;13.30;100.00
69751;BME280;57335;52.288;6.056;2023-08-31T05:50:55;100812.66;;;13.75;100.00
69751;BME280;57335;52.288;6.056;2023-08-31T05:53:21;100819.31;;;14.13;100.00
69751;BME280;57335;52.288;6.056;2023-08-31T05:55:48;100817.13;;;14.34;100.00
69751;BME280;57335;52.288;6.056;2023-08-31T05:58:15;100818.59;;;14.42;100.00
69751;BME280;57335;52.288;6.056;2023-08-31T06:00:41;100824.22;;;14.45;100.00
69751;BME280;57335;52.288;6.056;2023-08-31T06:03:08;100822.59;;;14.44;100.00
69751;BME280;57335;52.288;6.056;2023-08-31T06:05:34;100823.06;;;14.41;100.00
69751;BME280;57335;52.288;6.056;2023-08-31T06:08:00;100823.75;;;14.36;100.00
69751;BME280;57335;52.288;6.056;2023-08-31T06:10:27;100830.31;;;14.34;100.00
69751;BME280;57335;52.288;6.056;2023-08-31T06:12:53;100834.22;;;14.31;100.00
69751;BME280;57335;52.288;6.056;2023-08-31T06:15:20;100832.38;;;14.32;100.00
69751;BME280;57335;52.288;6.056;2023-08-31T06:17:46;100836.03;;;14.31;100.00
69751;BME280;57335;52.288;6.056;2023-08-31T06:20:13;100844.97;;;14.30;100.00
69751;BME280;57335;52.288;6.056;2023-08-31T06:22:39;100844.63;;;14.26;100.00
69751;BME280;57335;52.288;6.056;2023-08-31T06:25:06;100847.03;;;14.28;100.00
69751;BME280;57335;52.288;6.056;2023-08-31T06:27:32;100847.63;;;14.30;100.00
69751;BME280;57335;52.288;6.056;2023-08-31T06:29:58;100849.31;;;14.36;100.00
69751;BME280;57335;52.288;6.056;2023-08-31T06:32:25;100861.81;;;14.41;100.00
69751;BME280;57335;52.288;6.056;2023-08-31T06:34:51;100861.47;;;14.37;100.00
69751;BME280;57335;52.288;6.056;2023-08-31T06:37:18;100862.28;;;14.38;100.00
69751;BME280;57335;52.288;6.056;2023-08-31T06:39:44;100868.00;;;14.34;100.00
69751;BME280;57335;52.288;6.056;2023-08-31T06:42:11;100867.22;;;14.34;100.00
69751;BME280;57335;52.288;6.056;2023-08-31T06:44:37;100869.84;;;14.34;100.00
69751;BME280;57335;52.288;6.056;2023-08-31T06:47:04;100867.78;;;14.36;100.00
69751;BME280;57335;52.288;6.056;2023-08-31T06:49:30;100867.44;;;14.44;100.00
69751;BME280;57335;52.288;6.056;2023-08-31T06:51:56;100869.50;;;14.54;100.00
69751;BME280;57335;52.288;6.056;2023-08-31T06:54:23;100875.81;;;14.65;100.00
69751;BME280;57335;52.288;6.056;2023-08-31T06:56:49;100879.13;;;14.72;100.00
69751;BME280;57335;52.288;6.056;2023-08-31T06:59:15;100887.13;;;14.77;100.00
69751;BME280;57335;52.288;6.056;2023-08-31T07:01:42;100881.06;;;14.76;100.00
69751;BME280;57335;52.288;6.056;2023-08-31T07:04:08;100890.81;;;14.76;100.00
69751;BME280;57335;52.288;6.056;2023-08-31T07:06:35;100894.72;;;14.73;100.00
69751;BME280;57335;52.288;6.056;2023-08-31T07:09:02;100890.47;;;14.72;100.00
69751;BME280;57335;52.288;6.056;2023-08-31T07:11:29;100892.31;;;14.72;100.00
69751;BME280;57335;52.288;6.056;2023-08-31T07:13:55;100888.06;;;14.71;100.00
69751;BME280;57335;52.288;6.056;2023-08-31T07:16:22;100884.97;;;14.74;100.00
69751;BME280;57335;52.288;6.056;2023-08-31T07:18:48;100886.69;;;14.80;100.00
69751;BME280;57335;52.288;6.056;2023-08-31T07:21:15;100892.72;;;14.92;100.00
69751;BME280;57335;52.288;6.056;2023-08-31T07:23:41;100907.75;;;15.04;100.00
69751;BME280;57335;52.288;6.056;2023-08-31T07:26:08;100898.66;;;15.11;100.00
69751;BME280;57335;52.288;6.056;2023-08-31T07:28:35;100899.97;;;15.26;100.00
69751;BME280;57335;52.288;6.056;2023-08-31T07:31:05;100906.25;;;15.36;100.00
69751;BME280;57335;52.288;6.056;2023-08-31T07:33:33;100908.13;;;15.53;100.00
69751;BME280;57335;52.288;6.056;2023-08-31T07:50:10;100910.38;;;19.11;100.00
69751;BME280;57335;52.288;6.056;2023-08-31T07:52:36;100917.69;;;19.77;99.82
69751;BME280;57335;52.288;6.056;2023-08-31T07:55:03;100915.75;;;20.49;97.07
69751;BME280;57335;52.288;6.056;2023-08-31T07:57:29;100922.34;;;21.32;93.52
69751;BME280;57335;52.288;6.056;2023-08-31T07:59:56;100916.31;;;22.25;84.48
69751;BME280;57335;52.288;6.056;2023-08-31T08:02:22;100916.53;;;23.01;81.64
69751;BME280;57335;52.288;6.056;2023-08-31T08:04:49;100922.31;;;23.65;78.01
69751;BME280;57335;52.288;6.056;2023-08-31T08:07:15;100925.88;;;24.26;75.39
69751;BME280;57335;52.288;6.056;2023-08-31T08:09:42;100928.97;;;24.88;72.85
69751;BME280;57335;52.288;6.056;2023-08-31T08:12:08;100933.44;;;25.30;67.98
69751;BME280;57335;52.288;6.056;2023-08-31T08:14:35;100928.97;;;25.61;68.13
69751;BME280;57335;52.288;6.056;2023-08-31T08:17:01;100930.34;;;26.04;64.50
69751;BME280;57335;52.288;6.056;2023-08-31T08:19:28;100942.25;;;26.52;64.69
69751;BME280;57335;52.288;6.056;2023-08-31T08:21:54;100940.66;;;26.91;61.70
69751;BME280;57335;52.288;6.056;2023-08-31T08:24:21;100939.41;;;26.97;59.23
69751;BME280;57335;52.288;6.056;2023-08-31T08:26:47;100940.25;;;26.66;59.08
69751;BME280;57335;52.288;6.056;2023-08-31T08:29:13;100947.13;;;26.10;56.51
69751;BME280;57335;52.288;6.056;2023-08-31T08:31:40;100959.22;;;25.53;58.98
69751;BME280;57335;52.288;6.056;2023-08-31T08:34:06;100954.31;;;25.19;60.96
69751;BME280;57335;52.288;6.056;2023-08-31T08:36:33;100952.72;;;25.32;64.93
69751;BME280;57335;52.288;6.056;2023-08-31T08:38:59;100952.09;;;25.48;61.43
69751;BME280;57335;52.288;6.056;2023-08-31T08:41:28;100955.13;;;25.19;60.55
69751;BME280;57335;52.288;6.056;2023-08-31T08:43:56;100957.56;;;24.65;61.04
69751;BME280;57335;52.288;6.056;2023-08-31T08:46:25;100959.88;;;24.12;62.14
69751;BME280;57335;52.288;6.056;2023-08-31T08:48:53;100955.03;;;23.62;63.28
69751;BME280;57335;52.288;6.056;2023-08-31T08:51:20;100963.38;;;23.17;64.98
69751;BME280;57335;52.288;6.056;2023-08-31T08:53:48;100960.06;;;22.82;67.95
69751;BME280;57335;52.288;6.056;2023-08-31T08:56:16;100965.47;;;22.77;69.74
69751;BME280;57335;52.288;6.056;2023-08-31T08:58:43;100960.91;;;22.78;69.81
69751;BME280;57335;52.288;6.056;2023-08-31T09:01:10;100967.94;;;22.68;69.97
69751;BME280;57335;52.288;6.056;2023-08-31T09:03:37;100961.22;;;22.47;69.70
69751;BME280;57335;52.288;6.056;2023-08-31T09:06:03;100965.78;;;22.17;70.07
69751;BME280;57335;52.288;6.056;2023-08-31T09:08:30;100960.44;;;21.83;71.35
69751;BME280;57335;52.288;6.056;2023-08-31T09:10:57;100958.47;;;21.59;73.03
69751;BME280;57335;52.288;6.056;2023-08-31T09:13:27;100966.44;;;21.64;76.94
69751;BME280;57335;52.288;6.056;2023-08-31T09:15:54;100964.03;;;22.02;77.59
69751;BME280;57335;52.288;6.056;2023-08-31T09:18:25;100958.16;;;22.59;76.91
69751;BME280;57335;52.288;6.056;2023-08-31T09:20:53;100970.38;;;23.13;75.21
69751;BME280;57335;52.288;6.056;2023-08-31T09:23:20;100962.03;;;23.58;72.41
69751;BME280;57335;52.288;6.056;2023-08-31T09:25:48;100968.22;;;23.91;69.41
69751;BME280;57335;52.288;6.056;2023-08-31T09:28:16;100974.25;;;24.16;68.97
69751;BME280;57335;52.288;6.056;2023-08-31T09:30:48;100979.94;;;24.28;66.67
69751;BME280;57335;52.288;6.056;2023-08-31T09:33:16;100975.34;;;24.15;66.03
69751;BME280;57335;52.288;6.056;2023-08-31T09:35:51;100980.09;;;23.85;65.65
69751;BME280;57335;52.288;6.056;2023-08-31T09:38:18;100987.97;;;23.57;67.33
69751;BME280;57335;52.288;6.056;2023-08-31T09:40:45;100986.88;;;23.20;67.82
69751;BME280;57335;52.288;6.056;2023-08-31T09:43:12;100985.00;;;22.73;68.37
69751;BME280;57335;52.288;6.056;2023-08-31T09:45:44;100988.91;;;22.27;70.63
69751;BME280;57335;52.288;6.056;2023-08-31T09:48:13;101000.16;;;21.89;71.57
69751;BME280;57335;52.288;6.056;2023-08-31T09:50:43;100995.88;;;21.49;73.34
69751;BME280;57335;52.288;6.056;2023-08-31T09:53:10;100998.16;;;21.11;74.97
69751;BME280;57335;52.288;6.056;2023-08-31T09:55:41;100994.50;;;20.86;77.42
69751;BME280;57335;52.288;6.056;2023-08-31T09:58:09;100993.47;;;20.72;78.75
69751;BME280;57335;52.288;6.056;2023-08-31T10:00:42;100997.78;;;20.63;79.43
69751;BME280;57335;52.288;6.056;2023-08-31T10:03:09;100999.09;;;20.65;82.99
69751;BME280;57335;52.288;6.056;2023-08-31T10:05:37;100996.41;;;20.81;83.22
69751;BME280;57335;52.288;6.056;2023-08-31T10:08:04;101005.38;;;21.00;83.78
69751;BME280;57335;52.288;6.056;2023-08-31T10:10:31;101010.69;;;21.05;81.33
69751;BME280;57335;52.288;6.056;2023-08-31T10:12:58;101022.72;;;20.92;78.46
69751;BME280;57335;52.288;6.056;2023-08-31T10:15:31;101023.88;;;20.61;79.61
69751;BME280;57335;52.288;6.056;2023-08-31T10:17:59;101023.34;;;20.23;80.63
69751;BME280;57335;52.288;6.056;2023-08-31T10:20:26;101023.28;;;19.87;82.53
69751;BME280;57335;52.288;6.056;2023-08-31T10:22:53;101001.63;;;19.47;84.68
69751;BME280;57335;52.288;6.056;2023-08-31T10:25:19;101013.19;;;19.16;85.63
69751;BME280;57335;52.288;6.056;2023-08-31T10:27:46;101013.31;;;18.83;86.26
69751;BME280;57335;52.288;6.056;2023-08-31T10:35:55;101007.75;;;18.15;90.89
69751;BME280;57335;52.288;6.056;2023-08-31T10:38:26;101006.88;;;18.04;91.90
69751;BME280;57335;52.288;6.056;2023-08-31T10:43:55;100990.00;;;17.88;94.96
69751;BME280;57335;52.288;6.056;2023-08-31T10:48:57;100992.38;;;17.90;95.86
69751;BME280;57335;52.288;6.056;2023-08-31T10:51:29;100996.19;;;17.99;96.78
69751;BME280;57335;52.288;6.056;2023-08-31T10:54:32;100994.56;;;18.25;100.00
69751;BME280;57335;52.288;6.056;2023-08-31T10:59:26;100995.66;;;18.72;98.22
69751;BME280;57335;52.288;6.056;2023-08-31T11:02:06;100992.25;;;18.77;95.85
69751;BME280;57335;52.288;6.056;2023-08-31T11:04:58;100994.03;;;18.66;95.06
69751;BME280;57335;52.288;6.056;2023-08-31T11:07:26;100996.09;;;18.53;95.25
69751;BME280;57335;52.288;6.056;2023-08-31T11:10:10;100987.28;;;18.48;97.44
69751;BME280;57335;52.288;6.056;2023-08-31T11:12:38;100988.72;;;18.61;99.63
69751;BME280;57335;52.288;6.056;2023-08-31T11:15:05;100993.63;;;18.79;97.13
69751;BME280;57335;52.288;6.056;2023-08-31T11:17:32;100988.38;;;18.84;93.23
69751;BME280;57335;52.288;6.056;2023-08-31T11:19:59;100997.38;;;18.83;93.88
69751;BME280;57335;52.288;6.056;2023-08-31T11:22:27;100994.75;;;18.88;94.98
69751;BME280;57335;52.288;6.056;2023-08-31T11:24:53;100992.97;;;19.04;96.17
69751;BME280;57335;52.288;6.056;2023-08-31T11:27:20;100987.75;;;19.25;93.16
69751;BME280;57335;52.288;6.056;2023-08-31T11:29:47;100984.88;;;19.47;94.21
69751;BME280;57335;52.288;6.056;2023-08-31T11:32:14;100990.00;;;19.74;94.10
69751;BME280;57335;52.288;6.056;2023-08-31T11:34:42;100986.59;;;20.04;93.68
69751;BME280;57335;52.288;6.056;2023-08-31T11:37:09;100980.19;;;20.36;92.96
69751;BME280;57335;52.288;6.056;2023-08-31T11:39:37;100985.50;;;20.62;90.63
69751;BME280;57335;52.288;6.056;2023-08-31T11:42:04;100986.50;;;20.86;90.95
69751;BME280;57335;52.288;6.056;2023-08-31T11:44:31;100990.97;;;21.11;88.45
69751;BME280;57335;52.288;6.056;2023-08-31T11:46:58;100987.94;;;21.34;88.84
69751;BME280;57335;52.288;6.056;2023-08-31T11:49:26;100988.59;;;21.60;87.87
69751;BME280;57335;52.288;6.056;2023-08-31T11:51:53;100991.63;;;21.87;86.60
69751;BME280;57335;52.288;6.056;2023-08-31T11:54:20;100993.34;;;22.07;84.24
69751;BME280;57335;52.288;6.056;2023-08-31T11:56:47;100993.78;;;22.20;81.44
69751;BME280;57335;52.288;6.056;2023-08-31T11:59:18;100991.91;;;22.25;80.60
69751;BME280;57335;52.288;6.056;2023-08-31T12:01:49;100993.16;;;22.33;82.59
69751;BME280;57335;52.288;6.056;2023-08-31T12:04:19;100995.69;;;22.14;72.06
69751;BME280;57335;52.288;6.056;2023-08-31T12:06:47;100997.31;;;21.76;70.19
69751;BME280;57335;52.288;6.056;2023-08-31T12:09:13;100996.22;;;21.77;74.99
69751;BME280;57335;52.288;6.056;2023-08-31T12:11:40;100988.03;;;21.68;71.16
69751;BME280;57335;52.288;6.056;2023-08-31T12:14:23;100997.06;;;21.72;74.21
69751;BME280;57335;52.288;6.056;2023-08-31T12:16:50;100998.63;;;21.78;74.59
69751;BME280;57335;52.288;6.056;2023-08-31T12:19:18;100994.06;;;21.84;71.28
69751;BME280;57335;52.288;6.056;2023-08-31T12:21:45;101008.09;;;21.95;75.34
69751;BME280;57335;52.288;6.056;2023-08-31T12:24:12;101007.75;;;22.06;74.89
69751;BME280;57335;52.288;6.056;2023-08-31T12:26:40;101008.75;;;22.16;73.16
69751;BME280;57335;52.288;6.056;2023-08-31T12:29:07;101011.66;;;22.19;72.23
69751;BME280;57335;52.288;6.056;2023-08-31T12:31:33;101003.38;;;22.26;71.55
69751;BME280;57335;52.288;6.056;2023-08-31T12:34:00;101005.19;;;22.30;69.85
69751;BME280;57335;52.288;6.056;2023-08-31T12:36:26;101004.03;;;22.42;71.72
69751;BME280;57335;52.288;6.056;2023-08-31T12:38:53;101003.06;;;22.57;70.97
69751;BME280;57335;52.288;6.056;2023-08-31T12:41:19;101001.53;;;22.75;69.10
69751;BME280;57335;52.288;6.056;2023-08-31T12:43:49;101001.38;;;22.90;66.56
69751;BME280;57335;52.288;6.056;2023-08-31T12:46:15;100995.69;;;22.97;63.63
69751;BME280;57335;52.288;6.056;2023-08-31T12:48:41;101000.53;;;22.95;64.26
69751;BME280;57335;52.288;6.056;2023-08-31T12:51:08;100999.72;;;22.94;63.25
69751;BME280;57335;52.288;6.056;2023-08-31T12:53:38;100994.03;;;23.01;65.49
69751;BME280;57335;52.288;6.056;2023-08-31T12:56:05;100996.72;;;23.01;62.54
69751;BME280;57335;52.288;6.056;2023-08-31T12:58:32;101004.72;;;23.01;63.48
69751;BME280;57335;52.288;6.056;2023-08-31T13:00:58;101017.94;;;22.92;59.46
69751;BME280;57335;52.288;6.056;2023-08-31T13:03:25;101015.00;;;22.64;55.34
69751;BME280;57335;52.288;6.056;2023-08-31T13:05:52;101015.22;;;22.44;55.38
69751;BME280;57335;52.288;6.056;2023-08-31T13:08:18;101014.69;;;22.07;53.69
69751;BME280;57335;52.288;6.056;2023-08-31T13:10:51;101016.34;;;21.98;57.29
69751;BME280;57335;52.288;6.056;2023-08-31T13:13:17;101011.59;;;21.95;58.51
69751;BME280;57335;52.288;6.056;2023-08-31T13:15:46;101020.94;;;21.92;59.16